createdAt,value
2023-06-24T00:01:52.211Z,3.92
2023-06-24T00:04:21.990Z,3.88
2023-06-24T00:06:50.248Z,3.20
2023-06-24T00:09:18.494Z,4.20
2023-06-24T00:11:46.704Z,4.00
2023-06-24T00:14:16.343Z,3.70
2023-06-24T00:16:47.336Z,3.80
2023-06-24T00:19:15.560Z,3.75
2023-06-24T00:21:43.771Z,4.13
2023-06-24T00:24:11.860Z,3.55
2023-06-24T00:26:46.785Z,4.15
2023-06-24T00:29:15.021Z,3.70
2023-06-24T00:31:43.342Z,3.80
2023-06-24T00:34:12.901Z,3.72
2023-06-24T00:36:41.467Z,3.40
2023-06-24T00:39:10.756Z,3.03
2023-06-24T00:41:38.991Z,3.83
2023-06-24T00:44:10.076Z,3.67
2023-06-24T00:46:38.687Z,2.95
2023-06-24T00:49:06.827Z,4.00
2023-06-24T00:51:37.300Z,3.50
2023-06-24T00:54:06.019Z,3.25
2023-06-24T00:56:39.506Z,3.13
2023-06-24T00:59:09.963Z,3.45
2023-06-24T01:01:38.784Z,3.47
2023-06-24T01:04:08.803Z,3.23
2023-06-24T01:06:44.829Z,3.90
2023-06-24T01:09:14.602Z,3.80
2023-06-24T01:11:42.811Z,3.70
2023-06-24T01:14:10.962Z,3.67
2023-06-24T01:16:46.511Z,3.60
2023-06-24T01:19:35.981Z,3.55
2023-06-24T01:22:18.330Z,3.40
2023-06-24T01:25:03.361Z,4.07
2023-06-24T01:27:47.973Z,3.60
2023-06-24T01:30:32.955Z,2.90
2023-06-24T01:33:06.727Z,3.53
2023-06-24T01:35:37.626Z,3.33
2023-06-24T01:38:12.494Z,3.40
2023-06-24T01:40:47.347Z,3.17
2023-06-24T01:43:17.326Z,3.57
2023-06-24T01:45:49.917Z,3.40
2023-06-24T01:48:25.087Z,3.90
2023-06-24T01:51:00.222Z,3.67
2023-06-24T01:53:30.740Z,3.33
2023-06-24T01:56:01.554Z,3.80
2023-06-24T01:58:31.463Z,3.33
2023-06-24T02:00:59.953Z,3.67
2023-06-24T02:03:37.077Z,3.80
2023-06-24T02:06:07.749Z,3.87
2023-06-24T02:08:37.935Z,3.73
2023-06-24T02:11:07.296Z,3.80
2023-06-24T02:13:37.615Z,3.30
2023-06-24T02:16:07.950Z,3.20
2023-06-24T02:18:39.129Z,3.40
2023-06-24T02:21:08.003Z,3.33
2023-06-24T02:23:37.316Z,3.47
2023-06-24T02:26:10.891Z,3.60
2023-06-24T02:28:40.949Z,3.70
2023-06-24T02:31:11.908Z,3.57
2023-06-24T02:33:41.867Z,4.03
2023-06-24T02:36:10.754Z,3.37
2023-06-24T02:38:38.909Z,3.13
2023-06-24T02:41:14.589Z,4.00
2023-06-24T02:43:42.701Z,3.10
2023-06-24T02:46:13.804Z,3.47
2023-06-24T02:48:47.366Z,3.03
2023-06-24T02:51:15.589Z,3.33
2023-06-24T02:53:44.750Z,3.73
2023-06-24T02:56:15.666Z,3.20
2023-06-24T02:58:44.823Z,3.30
2023-06-24T03:01:13.571Z,3.47
2023-06-24T03:04:07.980Z,3.60
2023-06-24T03:06:38.472Z,3.60
2023-06-24T03:09:08.617Z,3.90
2023-06-24T03:11:43.202Z,3.63
2023-06-24T03:14:11.714Z,3.43
2023-06-24T03:16:40.290Z,3.43
2023-06-24T03:19:10.263Z,4.13
2023-06-24T03:21:38.396Z,3.60
2023-06-24T03:24:07.337Z,4.03
2023-06-24T03:26:36.338Z,3.40
2023-06-24T03:29:04.681Z,4.13
2023-06-24T03:31:32.784Z,3.63
2023-06-24T03:34:02.467Z,3.40
2023-06-24T03:36:31.957Z,3.57
2023-06-24T03:39:00.080Z,3.93
2023-06-24T03:41:29.038Z,3.23
2023-06-24T03:43:57.196Z,3.40
2023-06-24T03:46:25.353Z,3.60
2023-06-24T03:48:53.491Z,3.57
2023-06-24T03:51:21.615Z,3.70
2023-06-24T03:53:51.426Z,3.97
2023-06-24T03:56:19.670Z,4.20
2023-06-24T03:58:47.779Z,3.77
2023-06-24T04:01:15.933Z,3.97
2023-06-24T04:03:44.099Z,3.87
2023-06-24T04:06:12.342Z,3.77
2023-06-24T04:08:41.171Z,3.50
2023-06-24T04:11:10.666Z,3.70
2023-06-24T04:13:38.889Z,3.73
2023-06-24T04:16:07.102Z,3.30
2023-06-24T04:18:35.212Z,3.30
2023-06-24T04:21:03.853Z,3.33
2023-06-24T04:23:31.917Z,4.20
2023-06-24T04:26:00.090Z,3.83
2023-06-24T04:28:29.632Z,3.30
2023-06-24T04:30:58.836Z,3.50
2023-06-24T04:33:26.956Z,3.73
2023-06-24T04:35:57.618Z,3.67
2023-06-24T04:38:26.040Z,3.57
2023-06-24T04:40:54.115Z,3.23
2023-06-24T04:43:22.218Z,3.70
2023-06-24T04:45:52.076Z,3.30
2023-06-24T04:48:21.199Z,3.60
2023-06-24T04:50:49.342Z,3.83
2023-06-24T04:53:17.432Z,3.10
2023-06-24T04:55:45.503Z,3.87
2023-06-24T04:58:13.646Z,3.43
2023-06-24T05:00:41.799Z,3.30
2023-06-24T05:03:11.331Z,4.25
2023-06-24T05:05:39.752Z,3.83
2023-06-24T05:08:08.251Z,4.57
2023-06-24T05:10:36.397Z,3.63
2023-06-24T05:13:05.720Z,4.22
2023-06-24T05:15:33.969Z,3.83
2023-06-24T05:18:02.328Z,4.05
2023-06-24T05:20:31.850Z,4.07
2023-06-24T05:22:59.963Z,4.03
2023-06-24T05:25:28.097Z,4.25
2023-06-24T05:27:56.189Z,4.13
2023-06-24T05:30:24.397Z,3.80
2023-06-24T05:32:52.778Z,4.38
2023-06-24T05:35:22.171Z,3.92
2023-06-24T05:37:51.628Z,4.38
2023-06-24T05:40:19.768Z,3.65
2023-06-24T05:42:47.858Z,3.63
2023-06-24T05:45:15.971Z,3.97
2023-06-24T05:47:44.260Z,3.40
2023-06-24T05:50:12.665Z,3.70
2023-06-24T05:52:40.904Z,3.58
2023-06-24T05:55:10.767Z,3.38
2023-06-24T05:57:41.850Z,3.40
2023-06-24T06:00:11.283Z,3.20
2023-06-24T06:02:39.548Z,3.42
2023-06-24T06:05:08.074Z,3.47
2023-06-24T06:07:38.680Z,3.20
2023-06-24T06:10:07.703Z,3.15
2023-06-24T06:12:37.311Z,3.42
2023-06-24T06:15:06.048Z,3.00
2023-06-24T06:17:34.765Z,3.10
2023-06-24T06:20:03.110Z,2.90
2023-06-24T06:22:33.194Z,2.95
2023-06-24T06:25:01.409Z,2.85
2023-06-24T06:27:39.709Z,2.80
2023-06-24T06:30:09.364Z,4.78
2023-06-24T06:32:37.484Z,3.35
2023-06-24T06:35:06.258Z,2.55
2023-06-24T06:37:34.383Z,3.13
2023-06-24T06:40:02.600Z,2.85
2023-06-24T06:42:31.649Z,3.35
2023-06-24T06:45:01.187Z,2.90
2023-06-24T06:47:29.325Z,3.15
2023-06-24T06:49:57.442Z,3.10
2023-06-24T06:52:25.533Z,2.92
2023-06-24T06:55:02.827Z,2.92
2023-06-24T06:57:30.994Z,3.55
2023-06-24T07:00:00.606Z,3.00
2023-06-24T07:02:28.754Z,3.70
2023-06-24T07:04:57.040Z,3.50
2023-06-24T07:07:25.245Z,3.20
2023-06-24T07:09:53.525Z,3.42
2023-06-24T07:12:22.131Z,4.00
2023-06-24T07:14:58.252Z,3.30
2023-06-24T07:17:27.835Z,3.05
2023-06-24T07:19:55.939Z,3.10
2023-06-24T07:22:24.057Z,3.03
2023-06-24T07:24:52.115Z,4.38
2023-06-24T07:27:28.239Z,2.80
2023-06-24T07:29:56.360Z,3.15
2023-06-24T07:32:24.578Z,3.25
2023-06-24T07:34:54.271Z,3.13
2023-06-24T07:37:24.672Z,2.80
2023-06-24T07:39:53.819Z,3.20
2023-06-24T07:42:21.979Z,3.70
2023-06-24T07:44:52.556Z,2.95
2023-06-24T07:47:21.027Z,3.60
2023-06-24T07:49:49.311Z,3.38
2023-06-24T07:52:18.843Z,3.25
2023-06-24T07:54:46.989Z,3.38
2023-06-24T07:57:15.166Z,2.97
2023-06-24T07:59:43.282Z,3.38
2023-06-24T08:02:11.385Z,3.10
2023-06-24T08:04:39.595Z,3.00
2023-06-24T08:07:08.189Z,3.20
2023-06-24T08:09:37.716Z,3.47
2023-06-24T08:12:06.582Z,2.92
2023-06-24T08:14:34.686Z,3.00
2023-06-24T08:17:02.913Z,3.00
2023-06-24T08:19:31.023Z,2.67
2023-06-24T08:21:59.152Z,2.85
2023-06-24T08:24:28.333Z,2.72
2023-06-24T08:26:57.809Z,2.53
2023-06-24T08:29:25.916Z,2.97
2023-06-24T08:31:54.042Z,2.95
2023-06-24T08:34:22.304Z,3.03
2023-06-24T08:36:50.918Z,3.08
2023-06-24T08:39:19.053Z,2.88
2023-06-24T08:41:47.170Z,2.90
2023-06-24T08:44:20.816Z,2.97
2023-06-24T08:46:49.905Z,2.95
2023-06-24T08:49:29.772Z,3.10
2023-06-24T08:52:04.567Z,3.05
2023-06-24T08:54:35.866Z,3.20
2023-06-24T08:57:06.276Z,3.13
2023-06-24T08:59:36.597Z,3.13
2023-06-24T09:02:05.248Z,3.28
2023-06-24T09:04:33.412Z,3.42
2023-06-24T09:07:01.568Z,3.17
2023-06-24T09:09:30.020Z,3.20
2023-06-24T09:11:59.611Z,3.47
2023-06-24T09:14:29.558Z,3.17
2023-06-24T09:17:02.122Z,3.03
2023-06-24T09:19:31.304Z,3.13
2023-06-24T09:22:04.518Z,3.45
2023-06-24T09:24:33.655Z,3.00
2023-06-24T09:27:02.259Z,3.38
2023-06-24T09:29:31.706Z,2.88
2023-06-24T09:32:05.921Z,2.95
2023-06-24T09:34:34.940Z,3.08
2023-06-24T09:37:03.095Z,2.90
2023-06-24T09:39:37.900Z,2.90
2023-06-24T09:42:07.867Z,2.95
2023-06-24T09:44:36.290Z,3.20
2023-06-24T09:47:06.341Z,2.95
2023-06-24T09:49:34.431Z,3.00
2023-06-24T09:52:05.487Z,3.40
2023-06-24T09:54:35.040Z,3.08
2023-06-24T09:57:05.658Z,2.92
2023-06-24T09:59:35.528Z,3.33
2023-06-24T10:02:10.263Z,3.28
2023-06-24T10:04:39.145Z,3.00
2023-06-24T10:07:07.571Z,3.03
2023-06-24T10:09:35.830Z,2.70
2023-06-24T10:12:04.113Z,3.00
2023-06-24T10:14:33.599Z,2.70
2023-06-24T10:17:07.078Z,2.75
2023-06-24T10:19:40.894Z,3.28
2023-06-24T10:22:11.262Z,3.10
2023-06-24T10:24:43.159Z,3.10
2023-06-24T10:27:15.826Z,2.78
2023-06-24T10:29:47.795Z,2.90
2023-06-24T10:32:17.756Z,3.20
2023-06-24T10:34:46.945Z,2.47
2023-06-24T10:37:20.855Z,3.00
2023-06-24T10:39:53.133Z,2.42
2023-06-24T10:42:40.234Z,2.72
2023-06-24T10:45:20.321Z,2.53
2023-06-24T10:47:51.191Z,2.88
2023-06-24T10:50:22.210Z,2.53
2023-06-24T10:52:51.500Z,2.50
2023-06-24T10:55:20.727Z,2.63
2023-06-24T10:57:49.114Z,2.95
2023-06-24T11:00:17.820Z,2.63
2023-06-24T11:02:46.920Z,3.20
2023-06-24T11:05:16.680Z,2.65
2023-06-24T11:07:44.841Z,2.67
2023-06-24T11:10:15.202Z,2.60
2023-06-24T11:12:45.315Z,2.63
2023-06-24T11:15:21.712Z,2.95
2023-06-24T11:17:53.922Z,2.92
2023-06-24T11:20:35.634Z,2.95
2023-06-24T11:23:24.171Z,2.72
2023-06-24T11:26:12.250Z,2.15
2023-06-24T11:29:08.797Z,2.80
2023-06-24T11:31:45.257Z,2.60
2023-06-24T11:34:40.443Z,2.10
2023-06-24T11:37:24.387Z,2.75
2023-06-24T11:40:11.724Z,2.70
2023-06-24T11:42:52.484Z,2.50
2023-06-24T11:45:27.832Z,2.70
2023-06-24T11:48:17.614Z,2.50
2023-06-24T11:51:03.911Z,2.38
2023-06-24T11:53:57.822Z,2.40
2023-06-24T11:56:45.415Z,2.20
2023-06-24T11:59:34.678Z,2.35
2023-06-24T12:02:31.153Z,2.20
2023-06-24T12:05:13.961Z,2.45
2023-06-24T12:07:59.836Z,2.58
2023-06-24T12:10:40.681Z,2.72
2023-06-24T12:13:21.886Z,2.47
2023-06-24T12:16:19.465Z,2.75
2023-06-24T12:19:04.089Z,2.25
2023-06-24T12:21:46.709Z,2.67
2023-06-24T12:24:35.838Z,2.58
2023-06-24T12:27:24.844Z,2.60
2023-06-24T12:30:17.223Z,2.65
2023-06-24T12:32:54.990Z,2.50
2023-06-24T12:35:36.871Z,2.40
2023-06-24T12:38:37.122Z,2.78
2023-06-24T12:41:14.195Z,2.50
2023-06-24T12:44:05.506Z,2.20
2023-06-24T12:46:46.180Z,2.47
2023-06-24T12:49:30.837Z,2.45
2023-06-24T12:52:14.675Z,2.50
2023-06-24T12:54:56.283Z,2.60
2023-06-24T12:57:40.530Z,2.70
2023-06-24T13:00:30.933Z,2.70
2023-06-24T13:03:10.959Z,2.55
2023-06-24T13:05:51.004Z,2.50
2023-06-24T13:08:36.954Z,2.53
2023-06-24T13:11:12.341Z,2.60
2023-06-24T13:13:49.573Z,2.33
2023-06-24T13:16:29.827Z,2.47
2023-06-24T13:19:22.852Z,2.50
2023-06-24T13:21:58.327Z,2.30
2023-06-24T13:24:45.016Z,2.53
2023-06-24T13:27:39.743Z,2.47
2023-06-24T13:30:35.352Z,2.30
2023-06-24T13:33:16.703Z,2.50
2023-06-24T13:35:50.401Z,2.50
2023-06-24T13:38:43.037Z,2.42
2023-06-24T13:41:33.672Z,2.28
2023-06-24T13:44:19.382Z,2.35
2023-06-24T13:46:52.901Z,2.70
2023-06-24T13:49:38.298Z,2.60
2023-06-24T13:52:22.118Z,2.40
2023-06-24T13:55:02.254Z,2.10
2023-06-24T13:57:39.896Z,2.67
2023-06-24T14:00:24.983Z,2.95
2023-06-24T14:02:59.686Z,2.47
2023-06-24T14:05:40.787Z,2.25
2023-06-24T14:08:24.178Z,2.45
2023-06-24T14:11:08.492Z,2.40
2023-06-24T14:13:44.178Z,2.40
2023-06-24T14:16:35.397Z,2.53
2023-06-24T14:19:19.300Z,2.38
2023-06-24T14:21:59.149Z,2.53
2023-06-24T14:24:39.385Z,2.30
2023-06-24T14:27:31.933Z,2.55
2023-06-24T14:30:09.490Z,2.80
2023-06-24T14:32:52.138Z,2.63
2023-06-24T14:35:28.222Z,3.00
2023-06-24T14:38:29.653Z,2.63
2023-06-24T14:41:13.223Z,2.42
2023-06-24T14:43:53.563Z,2.38
2023-06-24T14:46:44.138Z,2.75
2023-06-24T14:49:30.925Z,2.60
2023-06-24T14:52:20.919Z,2.45
2023-06-24T14:55:06.126Z,2.60
2023-06-24T14:57:44.967Z,2.53
2023-06-24T15:00:21.130Z,2.80
2023-06-24T15:02:51.465Z,2.50
2023-06-24T15:05:33.651Z,2.45
2023-06-24T15:08:14.281Z,2.58
2023-06-24T15:10:53.584Z,2.55
2023-06-24T15:13:34.330Z,2.35
2023-06-24T15:16:16.418Z,2.63
2023-06-24T15:18:57.336Z,2.63
2023-06-24T15:21:41.408Z,2.70
2023-06-24T15:24:19.869Z,2.45
2023-06-24T15:27:09.080Z,1.95
2023-06-24T15:30:05.187Z,2.38
2023-06-24T15:33:09.950Z,2.58
2023-06-24T15:35:46.257Z,2.60
2023-06-24T15:38:26.886Z,2.72
2023-06-24T15:41:06.697Z,2.40
2023-06-24T15:43:44.684Z,2.60
2023-06-24T15:46:20.930Z,2.22
2023-06-24T15:49:04.014Z,2.53
2023-06-24T15:51:51.548Z,2.60
2023-06-24T15:54:31.686Z,2.72
2023-06-24T15:57:08.941Z,2.53
2023-06-24T15:59:47.917Z,2.40
2023-06-24T16:02:27.554Z,2.88
2023-06-24T16:05:03.672Z,2.75
2023-06-24T16:07:43.883Z,3.05
2023-06-24T16:10:26.368Z,2.65
2023-06-24T16:13:14.400Z,3.13
2023-06-24T16:16:02.738Z,4.10
2023-06-24T16:18:40.460Z,2.60
2023-06-24T16:21:19.587Z,3.30
2023-06-24T16:23:53.603Z,2.65
2023-06-24T16:26:52.533Z,2.40
2023-06-24T16:29:30.673Z,3.00
2023-06-24T16:32:25.308Z,2.30
2023-06-24T16:35:28.554Z,2.80
2023-06-24T16:38:00.645Z,2.85
2023-06-24T16:40:44.292Z,2.80
2023-06-24T16:43:21.596Z,2.75
2023-06-24T16:46:02.852Z,2.83
2023-06-24T16:49:05.031Z,4.40
2023-06-24T16:51:49.491Z,2.88
2023-06-24T16:54:22.770Z,3.10
2023-06-24T16:57:09.896Z,3.25
2023-06-24T16:59:56.086Z,3.00
2023-06-24T17:02:54.044Z,4.38
2023-06-24T17:05:29.306Z,2.45
2023-06-24T17:08:24.257Z,2.80
2023-06-24T17:10:58.510Z,2.60
2023-06-24T17:13:46.306Z,2.90
2023-06-24T17:16:38.205Z,2.65
2023-06-24T17:19:22.377Z,2.85
2023-06-24T17:22:06.577Z,2.67
2023-06-24T17:24:45.914Z,2.67
2023-06-24T17:27:21.566Z,2.90
2023-06-24T17:29:54.988Z,3.50
2023-06-24T17:32:38.842Z,2.70
2023-06-24T17:35:27.972Z,2.97
2023-06-24T17:38:03.684Z,3.17
2023-06-24T17:40:40.142Z,3.08
2023-06-24T17:43:27.931Z,3.20
2023-06-24T17:46:11.158Z,3.25
2023-06-24T17:48:48.646Z,3.33
2023-06-24T17:51:36.827Z,3.20
2023-06-24T17:54:21.859Z,3.10
2023-06-24T17:57:11.173Z,3.58
2023-06-24T17:59:53.422Z,3.15
2023-06-24T18:02:28.888Z,3.25
2023-06-24T18:05:17.073Z,3.45
2023-06-24T18:07:56.050Z,3.15
2023-06-24T18:10:34.845Z,3.03
2023-06-24T18:13:13.418Z,3.40
2023-06-24T18:15:58.160Z,3.10
2023-06-24T18:18:29.812Z,3.80
2023-06-24T18:21:04.267Z,3.20
2023-06-24T18:23:43.982Z,4.70
2023-06-24T18:26:27.526Z,3.97
2023-06-24T18:29:08.488Z,5.15
2023-06-24T18:31:50.184Z,4.82
2023-06-24T18:34:26.011Z,4.30
2023-06-24T18:37:02.694Z,4.13
2023-06-24T18:39:56.511Z,3.85
2023-06-24T18:45:26.851Z,3.80
2023-06-24T18:48:03.752Z,3.80
2023-06-24T18:50:38.664Z,4.10
2023-06-24T18:53:16.147Z,3.63
2023-06-24T18:55:48.991Z,3.65
2023-06-24T18:58:29.906Z,4.13
2023-06-24T19:01:20.480Z,3.58
2023-06-24T19:04:01.260Z,3.95
2023-06-24T19:06:41.939Z,4.53
2023-06-24T19:09:30.385Z,4.45
2023-06-24T19:12:00.102Z,4.18
2023-06-24T19:14:32.738Z,4.35
2023-06-24T19:17:14.782Z,3.60
2023-06-24T19:19:55.526Z,3.45
2023-06-24T19:22:30.261Z,3.75
2023-06-24T19:25:05.430Z,3.83
2023-06-24T19:27:48.185Z,4.20
2023-06-24T19:33:28.339Z,3.35
2023-06-24T19:36:09.151Z,4.00
2023-06-24T19:38:48.462Z,3.65
2023-06-24T19:41:25.863Z,3.65
2023-06-24T19:44:15.555Z,4.00
2023-06-24T19:46:46.969Z,3.67
2023-06-24T19:49:33.919Z,4.20
2023-06-24T19:52:20.591Z,3.92
2023-06-24T19:55:03.879Z,4.45
2023-06-24T19:57:41.342Z,3.85
2023-06-24T20:00:24.421Z,3.50
2023-06-24T20:03:23.499Z,4.05
2023-06-24T20:05:57.370Z,3.78
2023-06-24T20:08:32.655Z,3.55
2023-06-24T20:11:18.024Z,3.88
2023-06-24T20:14:06.536Z,3.85
2023-06-24T20:16:46.262Z,3.80
2023-06-24T20:19:39.019Z,3.30
2023-06-24T20:22:21.448Z,4.32
2023-06-24T20:25:10.854Z,3.88
2023-06-24T20:27:49.787Z,3.78
2023-06-24T20:30:27.030Z,3.88
2023-06-24T20:33:02.438Z,3.90
2023-06-24T20:35:59.882Z,3.78
2023-06-24T20:38:45.706Z,4.13
2023-06-24T20:41:36.920Z,3.80
2023-06-24T20:44:13.138Z,4.43
2023-06-24T20:46:54.583Z,4.40
2023-06-24T20:49:34.791Z,4.55
2023-06-24T20:52:22.956Z,4.20
2023-06-24T20:55:14.077Z,4.28
2023-06-24T20:57:56.444Z,4.38
2023-06-24T21:00:37.217Z,4.80
2023-06-24T21:03:23.642Z,4.63
2023-06-24T21:05:58.460Z,4.43
2023-06-24T21:08:35.841Z,4.55
2023-06-24T21:11:16.945Z,4.72
2023-06-24T21:14:07.987Z,5.03
2023-06-24T21:16:45.754Z,4.43
2023-06-24T21:19:38.171Z,4.32
2023-06-24T21:22:33.772Z,4.43
2023-06-24T21:25:16.199Z,4.68
2023-06-24T21:27:58.527Z,5.03
2023-06-24T21:33:21.420Z,5.22
2023-06-24T21:36:37.723Z,4.95
2023-06-24T21:39:20.275Z,4.43
2023-06-24T21:42:03.749Z,4.78
2023-06-24T21:44:52.986Z,4.00
2023-06-24T21:47:28.349Z,4.07
2023-06-24T21:50:06.166Z,3.92
2023-06-24T21:53:05.289Z,4.20
2023-06-24T21:55:43.865Z,4.30
2023-06-24T21:58:37.443Z,4.60
2023-06-24T22:01:16.859Z,4.45
2023-06-24T22:03:56.065Z,4.55
2023-06-24T22:06:47.704Z,4.00
2023-06-24T22:09:34.743Z,4.47
2023-06-24T22:12:22.195Z,3.78
2023-06-24T22:15:05.608Z,3.97
2023-06-24T22:17:44.360Z,4.20
2023-06-24T22:20:28.882Z,4.60
2023-06-24T22:23:07.545Z,4.45
2023-06-24T22:28:52.718Z,3.65
2023-06-24T22:31:35.353Z,4.32
2023-06-24T22:34:19.372Z,3.97
2023-06-24T22:36:59.919Z,4.43
2023-06-24T22:39:37.618Z,3.95
2023-06-24T22:42:24.529Z,4.10
2023-06-24T22:44:54.553Z,4.07
2023-06-24T22:47:35.234Z,4.20
2023-06-24T22:50:16.809Z,3.90
2023-06-24T22:53:00.260Z,4.25
2023-06-24T22:55:37.088Z,4.10
2023-06-24T22:58:38.140Z,3.28
2023-06-24T23:01:17.425Z,3.50
2023-06-24T23:03:58.844Z,4.00
2023-06-24T23:07:02.726Z,3.97
2023-06-24T23:09:44.075Z,3.97
2023-06-24T23:12:39.634Z,3.72
2023-06-24T23:15:17.901Z,3.55
2023-06-24T23:18:04.434Z,3.85
2023-06-24T23:20:41.180Z,3.40
2023-06-24T23:23:33.950Z,3.47
2023-06-24T23:26:14.362Z,3.78
2023-06-24T23:29:07.868Z,3.70
2023-06-24T23:31:45.701Z,3.60
2023-06-24T23:34:36.720Z,3.78
2023-06-24T23:37:32.407Z,3.78
2023-06-24T23:40:20.138Z,3.33
2023-06-24T23:43:01.731Z,3.42
2023-06-24T23:45:46.576Z,3.70
2023-06-24T23:48:46.933Z,3.72
2023-06-24T23:51:31.500Z,3.70
2023-06-24T23:54:15.350Z,3.47
2023-06-24T23:57:02.952Z,3.88
2023-06-24T23:59:42.513Z,3.35
